sensor_id;sensor_type;location;lat;lon;timestamp;P1;durP1;ratioP1;P2;durP2;ratioP2
47603;SDS011;33326;51.116;6.900;2023-04-16T00:02:30;59.47;;;33.13;;
47603;SDS011;33326;51.116;6.900;2023-04-16T00:07:32;59.10;;;34.88;;
47603;SDS011;33326;51.116;6.900;2023-04-16T00:12:35;56.03;;;33.38;;
47603;SDS011;33326;51.116;6.900;2023-04-16T00:17:36;55.28;;;29.67;;
47603;SDS011;33326;51.116;6.900;2023-04-16T00:22:38;51.17;;;29.48;;
47603;SDS011;33326;51.116;6.900;2023-04-16T00:27:41;52.22;;;27.65;;
47603;SDS011;33326;51.116;6.900;2023-04-16T00:32:43;46.10;;;27.35;;
47603;SDS011;33326;51.116;6.900;2023-04-16T00:37:45;47.10;;;27.17;;
47603;SDS011;33326;51.116;6.900;2023-04-16T00:42:48;57.75;;;31.30;;
47603;SDS011;33326;51.116;6.900;2023-04-16T00:47:50;59.33;;;32.55;;
47603;SDS011;33326;51.116;6.900;2023-04-16T00:52:52;53.17;;;29.33;;
47603;SDS011;33326;51.116;6.900;2023-04-16T00:57:56;60.78;;;31.23;;
47603;SDS011;33326;51.116;6.900;2023-04-16T01:02:57;56.25;;;30.92;;
47603;SDS011;33326;51.116;6.900;2023-04-16T01:08:00;53.38;;;30.40;;
47603;SDS011;33326;51.116;6.900;2023-04-16T01:13:03;63.75;;;34.65;;
47603;SDS011;33326;51.116;6.900;2023-04-16T01:18:11;71.53;;;35.85;;
47603;SDS011;33326;51.116;6.900;2023-04-16T01:23:16;65.97;;;35.20;;
47603;SDS011;33326;51.116;6.900;2023-04-16T01:28:18;53.42;;;27.50;;
47603;SDS011;33326;51.116;6.900;2023-04-16T01:33:20;54.22;;;28.25;;
47603;SDS011;33326;51.116;6.900;2023-04-16T01:38:23;45.85;;;23.00;;
47603;SDS011;33326;51.116;6.900;2023-04-16T01:43:26;35.67;;;20.17;;
47603;SDS011;33326;51.116;6.900;2023-04-16T01:48:27;46.72;;;21.75;;
47603;SDS011;33326;51.116;6.900;2023-04-16T01:53:31;36.03;;;20.42;;
47603;SDS011;33326;51.116;6.900;2023-04-16T01:58:33;38.03;;;18.08;;
47603;SDS011;33326;51.116;6.900;2023-04-16T02:03:34;34.45;;;19.38;;
47603;SDS011;33326;51.116;6.900;2023-04-16T02:08:39;32.72;;;16.95;;
47603;SDS011;33326;51.116;6.900;2023-04-16T02:13:41;34.72;;;18.23;;
47603;SDS011;33326;51.116;6.900;2023-04-16T02:18:43;36.13;;;18.33;;
47603;SDS011;33326;51.116;6.900;2023-04-16T02:23:49;37.28;;;18.95;;
47603;SDS011;33326;51.116;6.900;2023-04-16T02:28:54;38.08;;;20.20;;
47603;SDS011;33326;51.116;6.900;2023-04-16T02:34:01;35.35;;;19.33;;
47603;SDS011;33326;51.116;6.900;2023-04-16T02:39:04;45.65;;;21.73;;
47603;SDS011;33326;51.116;6.900;2023-04-16T02:44:06;46.72;;;22.75;;
47603;SDS011;33326;51.116;6.900;2023-04-16T02:49:08;48.17;;;23.55;;
47603;SDS011;33326;51.116;6.900;2023-04-16T02:54:11;47.28;;;25.50;;
47603;SDS011;33326;51.116;6.900;2023-04-16T02:59:13;51.67;;;26.23;;
47603;SDS011;33326;51.116;6.900;2023-04-16T03:04:15;51.33;;;25.08;;
47603;SDS011;33326;51.116;6.900;2023-04-16T03:09:18;62.42;;;30.65;;
47603;SDS011;33326;51.116;6.900;2023-04-16T03:14:20;62.90;;;30.13;;
47603;SDS011;33326;51.116;6.900;2023-04-16T03:19:22;62.70;;;30.17;;
47603;SDS011;33326;51.116;6.900;2023-04-16T03:24:25;61.15;;;31.10;;
47603;SDS011;33326;51.116;6.900;2023-04-16T03:29:27;82.68;;;39.45;;
47603;SDS011;33326;51.116;6.900;2023-04-16T03:34:30;81.85;;;38.67;;
47603;SDS011;33326;51.116;6.900;2023-04-16T03:39:33;80.82;;;38.92;;
47603;SDS011;33326;51.116;6.900;2023-04-16T03:44:35;74.32;;;37.65;;
47603;SDS011;33326;51.116;6.900;2023-04-16T03:49:37;85.13;;;41.28;;
47603;SDS011;33326;51.116;6.900;2023-04-16T03:54:41;78.22;;;39.30;;
47603;SDS011;33326;51.116;6.900;2023-04-16T03:59:59;83.88;;;40.63;;
47603;SDS011;33326;51.116;6.900;2023-04-16T04:05:14;88.22;;;39.03;;
47603;SDS011;33326;51.116;6.900;2023-04-16T04:10:19;84.22;;;39.17;;
47603;SDS011;33326;51.116;6.900;2023-04-16T04:15:21;87.90;;;41.38;;
47603;SDS011;33326;51.116;6.900;2023-04-16T04:20:23;90.45;;;41.22;;
47603;SDS011;33326;51.116;6.900;2023-04-16T04:25:27;86.05;;;41.63;;
47603;SDS011;33326;51.116;6.900;2023-04-16T04:30:29;85.20;;;40.35;;
47603;SDS011;33326;51.116;6.900;2023-04-16T04:35:31;79.50;;;40.83;;
47603;SDS011;33326;51.116;6.900;2023-04-16T04:40:35;83.18;;;39.38;;
47603;SDS011;33326;51.116;6.900;2023-04-16T04:45:38;84.15;;;39.13;;
47603;SDS011;33326;51.116;6.900;2023-04-16T04:50:40;81.43;;;37.70;;
47603;SDS011;33326;51.116;6.900;2023-04-16T04:55:44;82.82;;;39.95;;
47603;SDS011;33326;51.116;6.900;2023-04-16T05:00:45;78.28;;;37.08;;
47603;SDS011;33326;51.116;6.900;2023-04-16T05:05:47;78.55;;;36.90;;
47603;SDS011;33326;51.116;6.900;2023-04-16T05:10:50;84.45;;;38.83;;
47603;SDS011;33326;51.116;6.900;2023-04-16T05:15:52;81.68;;;39.30;;
47603;SDS011;33326;51.116;6.900;2023-04-16T05:20:54;77.78;;;38.03;;
47603;SDS011;33326;51.116;6.900;2023-04-16T05:25:57;89.47;;;40.17;;
47603;SDS011;33326;51.116;6.900;2023-04-16T05:30:59;93.18;;;41.15;;
47603;SDS011;33326;51.116;6.900;2023-04-16T05:36:01;94.28;;;41.75;;
47603;SDS011;33326;51.116;6.900;2023-04-16T05:41:04;92.95;;;40.50;;
47603;SDS011;33326;51.116;6.900;2023-04-16T05:46:06;92.07;;;42.45;;
47603;SDS011;33326;51.116;6.900;2023-04-16T05:51:07;101.85;;;43.35;;
47603;SDS011;33326;51.116;6.900;2023-04-16T05:56:11;91.00;;;42.60;;
47603;SDS011;33326;51.116;6.900;2023-04-16T06:01:12;91.18;;;41.80;;
47603;SDS011;33326;51.116;6.900;2023-04-16T06:06:14;90.78;;;40.03;;
47603;SDS011;33326;51.116;6.900;2023-04-16T06:11:17;85.13;;;37.97;;
47603;SDS011;33326;51.116;6.900;2023-04-16T06:16:19;81.53;;;36.35;;
47603;SDS011;33326;51.116;6.900;2023-04-16T06:21:21;68.47;;;34.92;;
47603;SDS011;33326;51.116;6.900;2023-04-16T06:26:24;79.22;;;35.22;;
47603;SDS011;33326;51.116;6.900;2023-04-16T06:31:26;63.30;;;32.17;;
47603;SDS011;33326;51.116;6.900;2023-04-16T06:36:28;68.93;;;34.55;;
47603;SDS011;33326;51.116;6.900;2023-04-16T06:41:31;78.88;;;35.45;;
47603;SDS011;33326;51.116;6.900;2023-04-16T06:46:33;72.13;;;35.13;;
47603;SDS011;33326;51.116;6.900;2023-04-16T06:51:35;72.80;;;35.88;;
47603;SDS011;33326;51.116;6.900;2023-04-16T06:56:38;66.60;;;33.50;;
47603;SDS011;33326;51.116;6.900;2023-04-16T07:01:40;65.18;;;32.50;;
47603;SDS011;33326;51.116;6.900;2023-04-16T07:06:42;59.70;;;30.33;;
47603;SDS011;33326;51.116;6.900;2023-04-16T07:11:45;49.83;;;26.05;;
47603;SDS011;33326;51.116;6.900;2023-04-16T07:16:47;49.15;;;25.40;;
47603;SDS011;33326;51.116;6.900;2023-04-16T07:21:49;52.05;;;26.15;;
47603;SDS011;33326;51.116;6.900;2023-04-16T07:26:52;46.25;;;25.17;;
47603;SDS011;33326;51.116;6.900;2023-04-16T07:31:54;48.25;;;25.13;;
47603;SDS011;33326;51.116;6.900;2023-04-16T07:36:57;41.85;;;23.38;;
47603;SDS011;33326;51.116;6.900;2023-04-16T07:42:00;43.65;;;23.58;;
47603;SDS011;33326;51.116;6.900;2023-04-16T07:47:02;40.38;;;24.50;;
47603;SDS011;33326;51.116;6.900;2023-04-16T07:52:04;36.90;;;21.48;;
47603;SDS011;33326;51.116;6.900;2023-04-16T07:57:08;40.88;;;23.55;;
47603;SDS011;33326;51.116;6.900;2023-04-16T08:02:11;41.22;;;24.50;;
47603;SDS011;33326;51.116;6.900;2023-04-16T08:07:15;38.60;;;23.25;;
47603;SDS011;33326;51.116;6.900;2023-04-16T08:12:18;40.03;;;22.33;;
47603;SDS011;33326;51.116;6.900;2023-04-16T08:17:21;41.53;;;23.15;;
47603;SDS011;33326;51.116;6.900;2023-04-16T08:22:22;38.50;;;22.80;;
47603;SDS011;33326;51.116;6.900;2023-04-16T08:27:26;40.13;;;23.40;;
47603;SDS011;33326;51.116;6.900;2023-04-16T08:32:29;41.30;;;23.30;;
47603;SDS011;33326;51.116;6.900;2023-04-16T08:37:31;36.28;;;22.48;;
47603;SDS011;33326;51.116;6.900;2023-04-16T08:42:36;35.80;;;22.95;;
47603;SDS011;33326;51.116;6.900;2023-04-16T08:47:44;40.00;;;24.17;;
47603;SDS011;33326;51.116;6.900;2023-04-16T08:52:49;38.42;;;23.60;;
47603;SDS011;33326;51.116;6.900;2023-04-16T08:57:53;38.60;;;23.10;;
47603;SDS011;33326;51.116;6.900;2023-04-16T09:02:59;41.47;;;23.65;;
47603;SDS011;33326;51.116;6.900;2023-04-16T09:08:03;37.72;;;23.25;;
47603;SDS011;33326;51.116;6.900;2023-04-16T09:13:08;40.92;;;23.75;;
47603;SDS011;33326;51.116;6.900;2023-04-16T09:18:12;36.75;;;22.58;;
47603;SDS011;33326;51.116;6.900;2023-04-16T09:23:14;36.72;;;23.50;;
47603;SDS011;33326;51.116;6.900;2023-04-16T09:33:41;38.42;;;23.13;;
47603;SDS011;33326;51.116;6.900;2023-04-16T09:38:47;37.13;;;22.08;;
47603;SDS011;33326;51.116;6.900;2023-04-16T09:43:54;34.72;;;22.33;;
47603;SDS011;33326;51.116;6.900;2023-04-16T09:48:57;36.30;;;21.95;;
47603;SDS011;33326;51.116;6.900;2023-04-16T09:54:05;35.00;;;22.25;;
47603;SDS011;33326;51.116;6.900;2023-04-16T09:59:10;29.73;;;21.63;;
47603;SDS011;33326;51.116;6.900;2023-04-16T10:04:18;30.60;;;21.58;;
47603;SDS011;33326;51.116;6.900;2023-04-16T10:09:22;31.58;;;20.98;;
47603;SDS011;33326;51.116;6.900;2023-04-16T10:14:26;30.65;;;21.30;;
47603;SDS011;33326;51.116;6.900;2023-04-16T10:19:28;28.77;;;20.20;;
47603;SDS011;33326;51.116;6.900;2023-04-16T10:24:32;28.75;;;20.20;;
47603;SDS011;33326;51.116;6.900;2023-04-16T10:29:36;28.85;;;20.05;;
47603;SDS011;33326;51.116;6.900;2023-04-16T10:34:38;28.88;;;21.92;;
47603;SDS011;33326;51.116;6.900;2023-04-16T10:39:40;30.50;;;21.30;;
47603;SDS011;33326;51.116;6.900;2023-04-16T10:44:44;33.17;;;20.55;;
47603;SDS011;33326;51.116;6.900;2023-04-16T10:49:46;26.73;;;19.65;;
47603;SDS011;33326;51.116;6.900;2023-04-16T10:54:48;27.73;;;20.58;;
47603;SDS011;33326;51.116;6.900;2023-04-16T10:59:54;26.52;;;19.50;;
47603;SDS011;33326;51.116;6.900;2023-04-16T11:04:56;26.17;;;19.33;;
47603;SDS011;33326;51.116;6.900;2023-04-16T11:09:58;26.73;;;19.65;;
47603;SDS011;33326;51.116;6.900;2023-04-16T11:15:03;31.00;;;20.35;;
47603;SDS011;33326;51.116;6.900;2023-04-16T11:20:06;23.85;;;19.20;;
47603;SDS011;33326;51.116;6.900;2023-04-16T11:25:09;26.52;;;19.17;;
47603;SDS011;33326;51.116;6.900;2023-04-16T11:30:13;25.70;;;18.80;;
47603;SDS011;33326;51.116;6.900;2023-04-16T11:35:15;28.02;;;20.15;;
47603;SDS011;33326;51.116;6.900;2023-04-16T11:40:18;26.85;;;19.80;;
47603;SDS011;33326;51.116;6.900;2023-04-16T11:45:23;26.67;;;18.77;;
47603;SDS011;33326;51.116;6.900;2023-04-16T11:50:26;23.48;;;17.00;;
47603;SDS011;33326;51.116;6.900;2023-04-16T11:55:29;23.75;;;18.25;;
47603;SDS011;33326;51.116;6.900;2023-04-16T12:00:34;24.05;;;18.13;;
47603;SDS011;33326;51.116;6.900;2023-04-16T12:05:37;24.40;;;17.95;;
47603;SDS011;33326;51.116;6.900;2023-04-16T12:10:51;23.02;;;17.45;;
47603;SDS011;33326;51.116;6.900;2023-04-16T12:15:56;19.35;;;16.40;;
47603;SDS011;33326;51.116;6.900;2023-04-16T12:20:58;21.23;;;16.15;;
47603;SDS011;33326;51.116;6.900;2023-04-16T12:26:05;21.95;;;16.10;;
47603;SDS011;33326;51.116;6.900;2023-04-16T12:31:14;23.05;;;16.42;;
47603;SDS011;33326;51.116;6.900;2023-04-16T12:36:16;21.33;;;16.33;;
47603;SDS011;33326;51.116;6.900;2023-04-16T12:41:18;20.70;;;15.63;;
47603;SDS011;33326;51.116;6.900;2023-04-16T12:46:22;20.95;;;16.05;;
47603;SDS011;33326;51.116;6.900;2023-04-16T12:51:24;20.55;;;16.15;;
47603;SDS011;33326;51.116;6.900;2023-04-16T12:56:27;17.63;;;14.00;;
47603;SDS011;33326;51.116;6.900;2023-04-16T13:01:30;19.67;;;14.73;;
47603;SDS011;33326;51.116;6.900;2023-04-16T13:06:35;19.23;;;14.90;;
47603;SDS011;33326;51.116;6.900;2023-04-16T13:11:37;17.45;;;14.45;;
47603;SDS011;33326;51.116;6.900;2023-04-16T13:16:40;18.83;;;14.25;;
47603;SDS011;33326;51.116;6.900;2023-04-16T13:21:42;18.65;;;14.30;;
47603;SDS011;33326;51.116;6.900;2023-04-16T13:26:43;18.38;;;14.77;;
47603;SDS011;33326;51.116;6.900;2023-04-16T13:31:47;18.65;;;13.98;;
47603;SDS011;33326;51.116;6.900;2023-04-16T13:36:49;19.10;;;14.48;;
47603;SDS011;33326;51.116;6.900;2023-04-16T13:41:51;19.10;;;14.60;;
47603;SDS011;33326;51.116;6.900;2023-04-16T13:46:54;18.80;;;14.43;;
47603;SDS011;33326;51.116;6.900;2023-04-16T13:51:56;17.48;;;13.15;;
47603;SDS011;33326;51.116;6.900;2023-04-16T13:56:57;18.42;;;14.00;;
47603;SDS011;33326;51.116;6.900;2023-04-16T14:02:01;18.17;;;13.38;;
47603;SDS011;33326;51.116;6.900;2023-04-16T14:07:04;20.15;;;13.73;;
47603;SDS011;33326;51.116;6.900;2023-04-16T14:12:06;16.90;;;13.43;;
47603;SDS011;33326;51.116;6.900;2023-04-16T14:17:09;18.45;;;13.52;;
47603;SDS011;33326;51.116;6.900;2023-04-16T14:22:11;16.95;;;13.15;;
47603;SDS011;33326;51.116;6.900;2023-04-16T14:27:16;17.30;;;13.82;;
47603;SDS011;33326;51.116;6.900;2023-04-16T14:32:20;18.33;;;12.57;;
47603;SDS011;33326;51.116;6.900;2023-04-16T14:37:21;17.50;;;12.68;;
47603;SDS011;33326;51.116;6.900;2023-04-16T14:42:23;18.80;;;12.50;;
47603;SDS011;33326;51.116;6.900;2023-04-16T14:47:27;17.35;;;12.68;;
47603;SDS011;33326;51.116;6.900;2023-04-16T14:52:29;19.40;;;13.70;;
47603;SDS011;33326;51.116;6.900;2023-04-16T14:57:31;19.10;;;12.10;;
47603;SDS011;33326;51.116;6.900;2023-04-16T15:02:34;14.48;;;11.10;;
47603;SDS011;33326;51.116;6.900;2023-04-16T15:07:36;16.52;;;12.60;;
47603;SDS011;33326;51.116;6.900;2023-04-16T15:12:38;16.75;;;11.95;;
47603;SDS011;33326;51.116;6.900;2023-04-16T15:17:42;16.20;;;12.25;;
47603;SDS011;33326;51.116;6.900;2023-04-16T15:22:44;17.02;;;13.15;;
47603;SDS011;33326;51.116;6.900;2023-04-16T15:27:46;16.02;;;12.15;;
47603;SDS011;33326;51.116;6.900;2023-04-16T15:32:49;15.60;;;12.80;;
47603;SDS011;33326;51.116;6.900;2023-04-16T15:37:51;18.13;;;13.85;;
47603;SDS011;33326;51.116;6.900;2023-04-16T15:42:54;17.73;;;12.85;;
47603;SDS011;33326;51.116;6.900;2023-04-16T15:47:57;17.77;;;12.90;;
47603;SDS011;33326;51.116;6.900;2023-04-16T15:52:59;16.63;;;12.07;;
47603;SDS011;33326;51.116;6.900;2023-04-16T15:58:01;16.98;;;11.88;;
47603;SDS011;33326;51.116;6.900;2023-04-16T16:03:04;13.18;;;10.38;;
47603;SDS011;33326;51.116;6.900;2023-04-16T16:08:06;12.77;;;9.90;;
47603;SDS011;33326;51.116;6.900;2023-04-16T16:13:09;10.77;;;9.50;;
47603;SDS011;33326;51.116;6.900;2023-04-16T16:18:16;12.63;;;9.75;;
47603;SDS011;33326;51.116;6.900;2023-04-16T16:23:18;14.57;;;9.50;;
47603;SDS011;33326;51.116;6.900;2023-04-16T16:28:19;12.73;;;9.48;;
47603;SDS011;33326;51.116;6.900;2023-04-16T16:33:24;13.25;;;9.68;;
47603;SDS011;33326;51.116;6.900;2023-04-16T16:38:27;12.70;;;9.15;;
47603;SDS011;33326;51.116;6.900;2023-04-16T16:43:30;12.05;;;9.40;;
47603;SDS011;33326;51.116;6.900;2023-04-16T16:48:33;14.82;;;9.57;;
47603;SDS011;33326;51.116;6.900;2023-04-16T16:53:35;12.00;;;9.20;;
47603;SDS011;33326;51.116;6.900;2023-04-16T16:58:37;13.40;;;9.73;;
47603;SDS011;33326;51.116;6.900;2023-04-16T17:03:40;12.02;;;9.05;;
47603;SDS011;33326;51.116;6.900;2023-04-16T17:08:42;17.52;;;12.13;;
47603;SDS011;33326;51.116;6.900;2023-04-16T17:13:44;24.48;;;15.23;;
47603;SDS011;33326;51.116;6.900;2023-04-16T17:18:47;29.27;;;17.77;;
47603;SDS011;33326;51.116;6.900;2023-04-16T17:23:49;26.90;;;16.88;;
47603;SDS011;33326;51.116;6.900;2023-04-16T17:28:51;27.33;;;17.15;;
47603;SDS011;33326;51.116;6.900;2023-04-16T17:33:54;25.98;;;16.00;;
47603;SDS011;33326;51.116;6.900;2023-04-16T17:38:56;28.15;;;17.23;;
47603;SDS011;33326;51.116;6.900;2023-04-16T17:43:58;25.73;;;15.93;;
47603;SDS011;33326;51.116;6.900;2023-04-16T17:49:01;28.55;;;15.85;;
47603;SDS011;33326;51.116;6.900;2023-04-16T17:54:03;24.75;;;15.65;;
47603;SDS011;33326;51.116;6.900;2023-04-16T17:59:06;24.85;;;15.25;;
47603;SDS011;33326;51.116;6.900;2023-04-16T18:04:09;27.55;;;16.52;;
47603;SDS011;33326;51.116;6.900;2023-04-16T18:09:12;29.50;;;16.27;;
47603;SDS011;33326;51.116;6.900;2023-04-16T18:14:14;28.13;;;17.13;;
47603;SDS011;33326;51.116;6.900;2023-04-16T18:19:20;27.10;;;17.42;;
47603;SDS011;33326;51.116;6.900;2023-04-16T18:24:22;26.38;;;16.88;;
47603;SDS011;33326;51.116;6.900;2023-04-16T18:29:24;31.38;;;17.85;;
47603;SDS011;33326;51.116;6.900;2023-04-16T18:34:27;31.58;;;19.20;;
47603;SDS011;33326;51.116;6.900;2023-04-16T18:39:31;30.73;;;19.13;;
47603;SDS011;33326;51.116;6.900;2023-04-16T18:44:33;32.70;;;20.58;;
47603;SDS011;33326;51.116;6.900;2023-04-16T18:49:36;38.33;;;21.38;;
47603;SDS011;33326;51.116;6.900;2023-04-16T18:54:37;38.63;;;22.50;;
47603;SDS011;33326;51.116;6.900;2023-04-16T18:59:39;42.38;;;24.20;;
47603;SDS011;33326;51.116;6.900;2023-04-16T19:04:42;36.95;;;23.05;;
47603;SDS011;33326;51.116;6.900;2023-04-16T19:09:45;43.85;;;24.70;;
47603;SDS011;33326;51.116;6.900;2023-04-16T19:14:47;39.42;;;23.55;;
47603;SDS011;33326;51.116;6.900;2023-04-16T19:19:50;39.95;;;24.80;;
47603;SDS011;33326;51.116;6.900;2023-04-16T19:24:51;45.70;;;23.88;;
47603;SDS011;33326;51.116;6.900;2023-04-16T19:29:54;34.10;;;22.00;;
47603;SDS011;33326;51.116;6.900;2023-04-16T19:34:57;39.25;;;21.70;;
47603;SDS011;33326;51.116;6.900;2023-04-16T19:39:59;38.15;;;22.17;;
47603;SDS011;33326;51.116;6.900;2023-04-16T19:45:01;40.10;;;22.13;;
47603;SDS011;33326;51.116;6.900;2023-04-16T19:50:05;35.95;;;20.83;;
47603;SDS011;33326;51.116;6.900;2023-04-16T19:55:08;37.35;;;21.75;;
47603;SDS011;33326;51.116;6.900;2023-04-16T20:00:10;37.78;;;21.98;;
47603;SDS011;33326;51.116;6.900;2023-04-16T20:05:14;38.60;;;22.80;;
47603;SDS011;33326;51.116;6.900;2023-04-16T20:10:16;38.35;;;22.55;;
47603;SDS011;33326;51.116;6.900;2023-04-16T20:15:18;31.38;;;20.90;;
47603;SDS011;33326;51.116;6.900;2023-04-16T20:20:22;33.97;;;20.65;;
47603;SDS011;33326;51.116;6.900;2023-04-16T20:25:24;31.60;;;20.83;;
47603;SDS011;33326;51.116;6.900;2023-04-16T20:30:25;32.90;;;21.98;;
47603;SDS011;33326;51.116;6.900;2023-04-16T20:35:30;36.97;;;21.90;;
47603;SDS011;33326;51.116;6.900;2023-04-16T20:40:31;37.25;;;21.67;;
47603;SDS011;33326;51.116;6.900;2023-04-16T20:45:37;31.27;;;20.52;;
47603;SDS011;33326;51.116;6.900;2023-04-16T20:50:41;36.70;;;21.88;;
47603;SDS011;33326;51.116;6.900;2023-04-16T20:55:43;34.58;;;21.65;;
47603;SDS011;33326;51.116;6.900;2023-04-16T21:00:47;34.58;;;22.55;;
47603;SDS011;33326;51.116;6.900;2023-04-16T21:05:50;37.33;;;21.98;;
47603;SDS011;33326;51.116;6.900;2023-04-16T21:10:53;35.33;;;21.45;;
47603;SDS011;33326;51.116;6.900;2023-04-16T21:15:55;34.70;;;22.73;;
47603;SDS011;33326;51.116;6.900;2023-04-16T21:20:59;34.40;;;23.33;;
47603;SDS011;33326;51.116;6.900;2023-04-16T21:26:01;44.03;;;25.23;;
47603;SDS011;33326;51.116;6.900;2023-04-16T21:31:02;48.00;;;26.70;;
47603;SDS011;33326;51.116;6.900;2023-04-16T21:36:06;43.33;;;26.63;;
47603;SDS011;33326;51.116;6.900;2023-04-16T21:41:09;48.90;;;27.83;;
47603;SDS011;33326;51.116;6.900;2023-04-16T21:46:11;49.20;;;29.75;;
47603;SDS011;33326;51.116;6.900;2023-04-16T21:51:14;50.05;;;29.05;;
47603;SDS011;33326;51.116;6.900;2023-04-16T21:56:17;48.47;;;30.42;;
47603;SDS011;33326;51.116;6.900;2023-04-16T22:01:19;49.47;;;30.52;;
47603;SDS011;33326;51.116;6.900;2023-04-16T22:06:22;49.03;;;30.95;;
47603;SDS011;33326;51.116;6.900;2023-04-16T22:11:25;50.83;;;30.75;;
47603;SDS011;33326;51.116;6.900;2023-04-16T22:16:27;50.08;;;29.88;;
47603;SDS011;33326;51.116;6.900;2023-04-16T22:21:30;48.20;;;31.52;;
47603;SDS011;33326;51.116;6.900;2023-04-16T22:26:32;53.35;;;32.00;;
47603;SDS011;33326;51.116;6.900;2023-04-16T22:31:34;51.88;;;32.25;;
47603;SDS011;33326;51.116;6.900;2023-04-16T22:36:37;49.15;;;31.67;;
47603;SDS011;33326;51.116;6.900;2023-04-16T22:41:39;50.15;;;33.47;;
47603;SDS011;33326;51.116;6.900;2023-04-16T22:46:41;49.28;;;33.20;;
47603;SDS011;33326;51.116;6.900;2023-04-16T22:51:45;52.38;;;33.72;;
47603;SDS011;33326;51.116;6.900;2023-04-16T22:56:47;58.08;;;34.38;;
47603;SDS011;33326;51.116;6.900;2023-04-16T23:01:49;53.50;;;34.30;;
47603;SDS011;33326;51.116;6.900;2023-04-16T23:06:53;53.78;;;34.63;;
47603;SDS011;33326;51.116;6.900;2023-04-16T23:11:55;51.45;;;33.97;;
47603;SDS011;33326;51.116;6.900;2023-04-16T23:16:57;51.40;;;33.80;;
47603;SDS011;33326;51.116;6.900;2023-04-16T23:22:00;50.25;;;33.00;;
47603;SDS011;33326;51.116;6.900;2023-04-16T23:27:03;41.97;;;29.35;;
47603;SDS011;33326;51.116;6.900;2023-04-16T23:32:04;44.55;;;29.58;;
47603;SDS011;33326;51.116;6.900;2023-04-16T23:37:07;45.70;;;28.77;;
47603;SDS011;33326;51.116;6.900;2023-04-16T23:42:09;48.28;;;32.33;;
47603;SDS011;33326;51.116;6.900;2023-04-16T23:47:11;47.38;;;29.83;;
47603;SDS011;33326;51.116;6.900;2023-04-16T23:52:14;47.42;;;31.52;;
47603;SDS011;33326;51.116;6.900;2023-04-16T23:57:16;51.20;;;33.03;;
